Portland, Oregon
Traffic Map
Current Weather Conditions
Portland, Oregon
Broken Clouds
Broken Clouds

Feels Like: 6°
Wind Chill: Ceiling: 25000
Heat Index: Visibility: 10mi
Dew Point: Wind: 21mph
Humidity: 83% Direction: 190° (S)
Pressure: 30.27in Gusts: 0mph
Raw Report DataKPDX 231553Z 19018KT 10SM FEW012 SCT070 BKN250 09/07 A3027 RMK AO2 SLP249 T00940067
Traffic Incident Summary
Active as of:
Severity:
Category:
InformationThere was an issue retrieving the traffic information for this location. Please try a different location or try again shortly.
Advertisements
Track Severe Weather on mobile